createdAt,value
2019-05-02T00:01:06.134Z,95095.80
2019-05-02T00:03:36.025Z,95094.42
2019-05-02T00:06:07.387Z,95093.17
2019-05-02T00:08:34.333Z,95089.83
2019-05-02T00:11:02.069Z,95085.39
2019-05-02T00:13:29.667Z,95082.17
2019-05-02T00:15:58.053Z,95083.13
2019-05-02T00:18:26.282Z,95085.49
2019-05-02T00:20:57.117Z,95087.39
2019-05-02T00:23:27.785Z,95091.45
2019-05-02T00:25:52.956Z,95088.27
2019-05-02T00:28:21.409Z,95088.31
2019-05-02T00:30:48.750Z,95090.72
2019-05-02T00:33:16.191Z,95087.31
2019-05-02T00:35:46.092Z,95073.41
2019-05-02T00:38:12.752Z,95080.62
2019-05-02T00:40:40.071Z,95074.45
2019-05-02T00:43:07.466Z,95076.63
2019-05-02T00:45:34.862Z,95062.70
2019-05-02T00:48:08.702Z,95068.45
2019-05-02T00:50:40.596Z,95066.81
2019-05-02T00:53:12.038Z,95070.47
2019-05-02T00:55:36.912Z,95059.59
2019-05-02T00:58:04.472Z,95055.91
2019-05-02T01:00:37.768Z,95059.39
2019-05-02T01:03:05.070Z,95054.76
2019-05-02T01:05:33.705Z,95065.22
2019-05-02T01:08:03.041Z,95054.76
2019-05-02T01:10:30.751Z,95061.98
2019-05-02T01:12:58.084Z,95057.64
2019-05-02T01:15:25.431Z,95056.02
2019-05-02T01:17:52.740Z,95068.31
2019-05-02T01:20:22.221Z,95057.44
2019-05-02T01:22:52.354Z,95056.83
2019-05-02T01:25:18.465Z,95061.33
2019-05-02T01:28:12.606Z,95058.44
2019-05-02T01:31:02.475Z,95064.56
2019-05-02T01:33:41.801Z,95057.88
2019-05-02T01:36:24.373Z,95053.81
2019-05-02T01:38:51.659Z,95049.91
2019-05-02T01:41:18.951Z,95049.28
2019-05-02T01:43:46.265Z,95050.12
2019-05-02T01:46:17.231Z,95049.74
2019-05-02T01:48:45.926Z,95045.80
2019-05-02T01:51:12.212Z,95051.22
2019-05-02T01:53:39.589Z,95048.41
2019-05-02T01:56:06.974Z,95047.88
2019-05-02T01:58:34.292Z,95043.41
2019-05-02T02:01:01.710Z,95041.61
2019-05-02T02:03:29.021Z,95038.35
2019-05-02T02:05:56.318Z,95038.88
2019-05-02T02:08:27.404Z,95035.36
2019-05-02T02:10:56.047Z,95037.02
2019-05-02T02:13:22.334Z,95037.66
2019-05-02T02:15:49.630Z,95043.16
2019-05-02T02:18:22.366Z,95047.42
2019-05-02T02:21:03.833Z,95045.04
2019-05-02T02:23:53.359Z,95040.73
2019-05-02T02:26:21.073Z,95042.88
2019-05-02T02:28:48.373Z,95039.61
2019-05-02T02:31:19.272Z,95041.59
2019-05-02T02:33:48.041Z,95044.86
2019-05-02T02:36:15.790Z,95044.30
2019-05-02T02:38:43.101Z,95041.25
2019-05-02T02:41:12.961Z,95040.32
2019-05-02T02:43:40.024Z,95040.26
2019-05-02T02:46:16.680Z,95041.00
2019-05-02T02:48:43.971Z,95037.75
2019-05-02T02:51:22.013Z,95036.81
2019-05-02T02:53:40.571Z,95036.00
2019-05-02T02:56:08.085Z,95037.63
2019-05-02T02:58:45.665Z,95039.95
2019-05-02T03:01:05.452Z,95043.05
2019-05-02T03:03:35.212Z,95039.95
2019-05-02T03:06:05.597Z,95041.34
2019-05-02T03:08:31.239Z,95043.41
2019-05-02T03:10:58.752Z,95030.26
2019-05-02T03:13:53.350Z,95031.17
2019-05-02T03:16:23.240Z,95033.39
2019-05-02T03:18:50.551Z,95030.52
2019-05-02T03:21:20.349Z,95029.99
2019-05-02T03:23:47.053Z,95034.91
2019-05-02T03:26:15.592Z,95032.53
2019-05-02T03:28:43.727Z,95032.55
2019-05-02T03:31:23.842Z,95025.66
2019-05-02T03:33:54.717Z,95031.25
2019-05-02T03:36:26.126Z,95031.33
2019-05-02T03:38:40.179Z,95029.31
2019-05-02T03:41:13.658Z,95035.95
2019-05-02T03:43:36.815Z,95035.92
2019-05-02T03:46:04.153Z,95035.12
2019-05-02T03:48:31.435Z,95038.53
2019-05-02T03:50:58.731Z,95040.03
2019-05-02T03:53:27.739Z,95040.40
2019-05-02T03:55:55.293Z,95038.89
2019-05-02T03:58:22.967Z,95035.80
2019-05-02T04:01:00.900Z,95032.99
2019-05-02T04:03:19.510Z,95034.13
2019-05-02T04:05:47.270Z,95032.25
2019-05-02T04:08:20.923Z,95037.06
2019-05-02T04:11:22.572Z,95036.03
2019-05-02T04:13:51.956Z,95034.17
2019-05-02T04:16:19.263Z,95036.20
2019-05-02T04:18:54.626Z,95035.13
2019-05-02T04:21:16.460Z,95037.61
2019-05-02T04:23:44.388Z,95035.84
2019-05-02T04:26:14.402Z,95049.49
2019-05-02T04:28:45.641Z,95046.06
2019-05-02T04:31:11.636Z,95043.50
2019-05-02T04:33:38.952Z,95043.15
2019-05-02T04:36:13.503Z,95047.69
2019-05-02T04:38:44.447Z,95044.09
2019-05-02T04:41:04.771Z,95044.66
2019-05-02T04:43:32.110Z,95044.08
2019-05-02T04:46:00.301Z,95043.86
2019-05-02T04:48:28.523Z,95061.37
2019-05-02T04:50:59.732Z,95054.23
2019-05-02T04:53:36.822Z,95055.79
2019-05-02T04:56:03.492Z,95046.99
2019-05-02T04:58:31.446Z,95053.77
2019-05-02T05:00:58.123Z,95064.83
2019-05-02T05:03:22.485Z,95059.58
2019-05-02T05:05:49.831Z,95060.17
2019-05-02T05:08:26.019Z,95061.78
2019-05-02T05:10:47.981Z,95060.36
2019-05-02T05:13:19.429Z,95061.32
2019-05-02T05:15:49.498Z,95066.41
2019-05-02T05:18:14.658Z,95067.57
2019-05-02T05:20:45.947Z,95065.61
2019-05-02T05:23:15.601Z,95068.55
2019-05-02T05:25:50.805Z,95073.84
2019-05-02T05:28:20.054Z,95074.41
2019-05-02T05:30:51.873Z,95071.94
2019-05-02T05:33:18.311Z,95067.86
2019-05-02T05:35:50.970Z,95065.34
2019-05-02T05:38:15.120Z,95072.36
2019-05-02T05:40:42.408Z,95064.03
2019-05-02T05:43:14.235Z,95061.52
2019-05-02T05:45:50.745Z,95065.06
2019-05-02T05:48:08.337Z,95067.78
2019-05-02T05:50:37.726Z,95059.34
2019-05-02T05:53:05.029Z,95059.91
2019-05-02T05:55:32.334Z,95055.11
2019-05-02T05:58:06.260Z,95057.77
2019-05-02T06:00:28.858Z,95055.08
2019-05-02T06:03:01.989Z,95049.19
2019-05-02T06:05:27.181Z,95047.78
2019-05-02T06:07:54.649Z,95050.62
2019-05-02T06:10:21.921Z,95046.83
2019-05-02T06:13:27.460Z,95038.48
2019-05-02T06:16:02.045Z,95042.34
2019-05-02T06:18:28.819Z,95037.39
2019-05-02T06:20:58.408Z,95022.52
2019-05-02T06:23:31.050Z,95029.23
2019-05-02T06:26:01.199Z,95024.25
2019-05-02T06:28:28.579Z,95030.63
2019-05-02T06:30:55.914Z,95022.80
2019-05-02T06:33:25.925Z,95016.25
2019-05-02T06:36:01.114Z,95018.27
2019-05-02T06:38:23.429Z,95011.70
2019-05-02T06:40:50.788Z,95011.95
2019-05-02T06:43:18.064Z,95006.26
2019-05-02T06:45:45.357Z,95003.77
2019-05-02T06:48:17.170Z,94996.19
2019-05-02T06:50:41.894Z,94995.97
2019-05-02T06:53:11.017Z,94997.03
2019-05-02T06:55:38.695Z,94987.88
2019-05-02T06:58:08.165Z,94987.38
2019-05-02T07:00:49.814Z,94983.22
2019-05-02T07:03:10.336Z,94978.92
2019-05-02T07:05:34.471Z,94974.93
2019-05-02T07:08:09.552Z,94971.34
2019-05-02T07:10:44.098Z,94967.66
2019-05-02T07:13:10.193Z,94965.42
2019-05-02T07:15:50.067Z,94960.27
2019-05-02T07:18:17.851Z,94952.93
2019-05-02T07:20:45.159Z,94947.01
2019-05-02T07:23:16.184Z,94943.91
2019-05-02T07:25:43.900Z,94939.48
2019-05-02T07:28:10.976Z,94932.51
2019-05-02T07:30:38.950Z,94935.69
2019-05-02T07:33:06.251Z,94927.34
2019-05-02T07:35:33.610Z,94933.95
2019-05-02T07:38:00.901Z,94926.59
2019-05-02T07:40:30.165Z,94921.17
2019-05-02T07:42:57.476Z,94920.44
2019-05-02T07:45:24.790Z,94915.25
2019-05-02T07:47:52.108Z,94912.50
2019-05-02T07:50:19.432Z,94911.58
2019-05-02T07:52:47.233Z,94907.91
2019-05-02T07:55:14.710Z,94905.91
2019-05-02T07:57:42.064Z,94907.63
2019-05-02T08:00:09.907Z,94907.92
2019-05-02T08:02:37.231Z,94905.81
2019-05-02T08:05:05.050Z,94899.22
2019-05-02T08:07:34.236Z,94900.53
2019-05-02T08:10:01.609Z,94896.13
2019-05-02T08:12:28.951Z,94890.70
2019-05-02T08:14:56.262Z,94882.48
2019-05-02T08:17:23.565Z,94879.70
2019-05-02T08:19:50.886Z,94882.80
2019-05-02T08:22:18.323Z,94876.34
2019-05-02T08:24:45.626Z,94875.42
2019-05-02T08:27:34.671Z,94875.78
2019-05-02T08:30:04.304Z,94867.77
2019-05-02T08:32:31.036Z,94875.47
2019-05-02T08:34:58.348Z,94860.17
2019-05-02T08:37:25.650Z,94863.64
2019-05-02T08:39:52.973Z,94850.34
2019-05-02T08:42:20.291Z,94855.68
2019-05-02T08:44:51.288Z,94842.17
2019-05-02T08:47:19.134Z,94838.83
2019-05-02T08:49:49.367Z,94838.49
2019-05-02T08:52:15.349Z,94836.97
2019-05-02T08:54:42.646Z,94823.33
2019-05-02T08:57:09.990Z,94824.50
2019-05-02T08:59:37.365Z,94815.46
2019-05-02T09:02:04.695Z,94812.19
2019-05-02T09:04:32.049Z,94804.06
2019-05-02T09:07:00.811Z,94800.30
2019-05-02T09:09:29.582Z,94799.16
2019-05-02T09:12:08.947Z,94797.83
2019-05-02T09:14:26.283Z,94787.91
2019-05-02T09:16:53.645Z,94782.80
2019-05-02T09:19:24.942Z,94785.28
2019-05-02T09:21:52.529Z,94781.09
2019-05-02T09:24:23.200Z,94780.92
2019-05-02T09:26:48.852Z,94779.40
2019-05-02T09:29:16.166Z,94773.37
2019-05-02T09:31:46.019Z,94774.66
2019-05-02T09:34:17.071Z,94769.25
2019-05-02T09:36:42.076Z,94764.17
2019-05-02T09:39:09.431Z,94751.39
2019-05-02T09:41:36.755Z,94747.27
2019-05-02T09:44:04.161Z,94745.25
2019-05-02T09:46:32.486Z,94737.05
2019-05-02T09:49:02.865Z,94733.30
2019-05-02T09:51:29.165Z,94732.76
2019-05-02T09:53:57.134Z,94729.15
2019-05-02T09:56:25.747Z,94727.24
2019-05-02T09:58:55.340Z,94724.58
2019-05-02T10:01:31.776Z,94720.09
2019-05-02T10:03:59.431Z,94712.98
2019-05-02T10:06:26.777Z,94702.05
2019-05-02T10:08:54.200Z,94702.86
2019-05-02T10:11:24.418Z,94697.95
2019-05-02T10:13:51.853Z,94695.44
2019-05-02T10:16:23.622Z,94690.52
2019-05-02T10:18:49.288Z,94684.06
2019-05-02T10:21:17.297Z,94678.95
2019-05-02T10:23:44.751Z,94662.03
2019-05-02T10:26:19.833Z,94658.14
2019-05-02T10:28:49.114Z,94656.70
2019-05-02T10:31:12.707Z,94648.20
2019-05-02T10:33:42.018Z,94635.92
2019-05-02T10:36:13.690Z,94632.69
2019-05-02T10:38:38.780Z,94629.01
2019-05-02T10:41:06.223Z,94621.54
2019-05-02T10:43:33.617Z,94617.32
2019-05-02T10:46:07.248Z,94617.20
2019-05-02T10:48:37.532Z,94613.02
2019-05-02T10:51:49.039Z,94607.45
2019-05-02T10:54:12.217Z,94594.06
2019-05-02T10:56:39.595Z,94594.16
2019-05-02T10:59:06.938Z,94589.71
2019-05-02T11:02:04.834Z,94580.92
2019-05-02T11:04:33.746Z,94578.75
2019-05-02T11:07:02.628Z,94569.23
2019-05-02T11:09:31.932Z,94564.38
2019-05-02T11:12:02.571Z,94560.29
2019-05-02T11:14:55.224Z,94552.41
2019-05-02T11:17:36.470Z,94558.10
2019-05-02T11:20:06.791Z,94536.59
2019-05-02T11:22:34.090Z,94538.27
2019-05-02T11:25:02.023Z,94530.66
2019-05-02T11:27:29.509Z,94526.17
2019-05-02T11:29:56.812Z,94517.78
2019-05-02T11:32:24.159Z,94521.84
2019-05-02T11:34:52.497Z,94516.91
2019-05-02T11:37:19.926Z,94510.45
2019-05-02T11:39:53.142Z,94514.50
2019-05-02T11:42:17.611Z,94507.23
2019-05-02T11:44:45.787Z,94499.69
2019-05-02T11:47:17.273Z,94499.19
2019-05-02T11:49:46.702Z,94492.30
2019-05-02T11:52:11.918Z,94484.59
2019-05-02T11:54:43.991Z,94479.28
2019-05-02T11:57:08.646Z,94477.27
2019-05-02T11:59:36.501Z,94479.34
2019-05-02T12:02:23.509Z,94470.66
2019-05-02T12:04:52.597Z,94476.11
2019-05-02T12:07:20.131Z,94464.00
2019-05-02T12:09:52.058Z,94462.56
2019-05-02T12:12:16.729Z,94456.02
2019-05-02T12:14:44.104Z,94445.52
2019-05-02T12:17:12.140Z,94450.48
2019-05-02T12:19:39.656Z,94452.12
2019-05-02T12:22:11.420Z,94435.41
2019-05-02T12:24:40.366Z,94438.80
2019-05-02T12:27:05.566Z,94441.16
2019-05-02T12:29:33.556Z,94428.33
2019-05-02T12:32:02.645Z,94424.08
2019-05-02T12:34:30.210Z,94421.68
2019-05-02T12:36:57.545Z,94423.26
2019-05-02T12:39:24.943Z,94415.77
2019-05-02T12:41:53.749Z,94411.84
2019-05-02T12:44:22.319Z,94410.67
2019-05-02T12:46:51.618Z,94401.20
2019-05-02T12:49:25.351Z,94401.55
2019-05-02T12:51:49.233Z,94391.94
2019-05-02T12:54:16.617Z,94384.48
2019-05-02T12:56:43.920Z,94379.93
2019-05-02T12:59:11.814Z,94381.81
2019-05-02T13:01:39.538Z,94374.58
2019-05-02T13:04:12.466Z,94374.91
2019-05-02T13:06:41.986Z,94372.29
2019-05-02T13:09:12.708Z,94356.10
2019-05-02T13:12:03.271Z,94358.71
2019-05-02T13:14:32.063Z,94361.94
2019-05-02T13:17:03.841Z,94355.77
2019-05-02T13:19:37.987Z,94346.69
2019-05-02T13:22:16.126Z,94347.56
2019-05-02T13:24:52.357Z,94340.88
2019-05-02T13:27:18.750Z,94341.68
2019-05-02T13:29:47.566Z,94339.13
2019-05-02T13:32:37.781Z,94334.86
2019-05-02T13:35:13.427Z,94322.37
2019-05-02T13:37:42.417Z,94321.84
2019-05-02T13:40:17.178Z,94323.33
2019-05-02T13:42:44.701Z,94314.80
2019-05-02T13:45:26.479Z,94316.38
2019-05-02T13:47:53.791Z,94312.02
2019-05-02T13:50:22.341Z,94310.88
2019-05-02T13:52:53.111Z,94311.91
2019-05-02T13:55:23.909Z,94305.72
2019-05-02T13:57:53.004Z,94307.19
2019-05-02T14:00:28.186Z,94303.62
2019-05-02T14:02:55.631Z,94299.38
2019-05-02T14:05:22.945Z,94298.95
2019-05-02T14:07:55.546Z,94295.47
2019-05-02T14:10:39.373Z,94290.66
2019-05-02T14:13:03.282Z,94292.05
2019-05-02T14:15:36.412Z,94296.34
2019-05-02T14:18:03.906Z,94296.88
2019-05-02T14:20:33.039Z,94291.92
2019-05-02T14:23:02.213Z,94288.43
2019-05-02T14:25:31.933Z,94289.16
2019-05-02T14:27:59.066Z,94290.84
2019-05-02T14:30:37.332Z,94285.33
2019-05-02T14:33:02.306Z,94290.89
2019-05-02T14:35:32.653Z,94289.19
2019-05-02T14:38:10.295Z,94294.97
2019-05-02T14:40:47.152Z,94294.15
2019-05-02T14:43:38.087Z,94293.03
2019-05-02T14:46:03.666Z,94288.20
2019-05-02T14:48:41.003Z,94286.25
2019-05-02T14:51:05.046Z,94281.98
2019-05-02T14:53:32.391Z,94278.35
2019-05-02T14:56:09.854Z,94278.47
2019-05-02T14:58:37.911Z,94270.70
2019-05-02T15:01:05.805Z,94264.73
2019-05-02T15:03:33.147Z,94275.70
2019-05-02T15:06:04.187Z,94275.20
2019-05-02T15:08:29.839Z,94264.86
2019-05-02T15:10:57.166Z,94263.63
2019-05-02T15:13:24.581Z,94261.53
2019-05-02T15:15:53.038Z,94262.80
2019-05-02T15:18:22.702Z,94268.58
2019-05-02T15:20:51.996Z,94263.84
2019-05-02T15:23:19.825Z,94256.60
2019-05-02T15:25:52.529Z,94254.80
2019-05-02T15:28:22.665Z,94252.89
2019-05-02T15:31:05.057Z,94254.91
2019-05-02T15:33:34.938Z,94250.39
2019-05-02T15:36:07.411Z,94246.90
2019-05-02T15:38:37.158Z,94245.27
2019-05-02T15:41:05.022Z,94250.55
2019-05-02T15:43:31.830Z,94248.03
2019-05-02T15:45:59.347Z,94257.27
2019-05-02T15:48:27.745Z,94242.98
2019-05-02T15:50:59.717Z,94237.64
2019-05-02T15:53:32.862Z,94239.81
2019-05-02T15:56:01.968Z,94236.52
2019-05-02T15:58:29.417Z,94236.01
2019-05-02T16:01:16.857Z,94240.17
2019-05-02T16:03:46.573Z,94237.41
2019-05-02T16:06:16.601Z,94245.87
2019-05-02T16:08:45.807Z,94243.98
2019-05-02T16:11:16.954Z,94250.82
2019-05-02T16:13:46.994Z,94248.34
2019-05-02T16:16:13.277Z,94239.34
2019-05-02T16:18:43.511Z,94247.32
2019-05-02T16:21:18.377Z,94247.92
2019-05-02T16:24:10.846Z,94256.59
2019-05-02T16:26:37.162Z,94255.39
2019-05-02T16:29:02.826Z,94255.05
2019-05-02T16:31:32.253Z,94249.56
2019-05-02T16:33:59.605Z,94247.22
2019-05-02T16:36:33.830Z,94245.75
2019-05-02T16:38:56.227Z,94247.69
2019-05-02T16:41:23.615Z,94247.89
2019-05-02T16:43:51.890Z,94261.77
2019-05-02T16:46:21.601Z,94259.86
2019-05-02T16:48:48.819Z,94253.06
2019-05-02T16:51:30.260Z,94257.28
2019-05-02T16:53:45.454Z,94255.39
2019-05-02T16:56:12.917Z,94246.26
2019-05-02T16:58:43.295Z,94243.48
2019-05-02T17:01:09.679Z,94244.36
2019-05-02T17:03:37.071Z,94251.19
2019-05-02T17:06:04.550Z,94248.52
2019-05-02T17:08:49.517Z,94246.50
2019-05-02T17:11:31.373Z,94257.72
2019-05-02T17:13:56.812Z,94249.77
2019-05-02T17:16:24.169Z,94244.27
2019-05-02T17:18:54.961Z,94254.41
2019-05-02T17:21:22.172Z,94251.73
2019-05-02T17:23:52.194Z,94254.13
2019-05-02T17:26:18.981Z,94251.56
2019-05-02T17:28:47.265Z,94259.30
2019-05-02T17:31:19.624Z,94261.16
2019-05-02T17:33:46.290Z,94267.63
2019-05-02T17:36:13.520Z,94269.56
2019-05-02T17:38:41.861Z,94269.17
2019-05-02T17:41:09.381Z,94279.56
2019-05-02T17:43:37.403Z,94287.60
2019-05-02T17:46:07.587Z,94280.23
2019-05-02T17:48:37.466Z,94284.21
2019-05-02T17:51:22.751Z,94294.98
2019-05-02T17:53:52.283Z,94292.84
2019-05-02T17:56:22.331Z,94307.03
2019-05-02T17:58:54.106Z,94308.77
2019-05-02T18:01:26.436Z,94314.52
2019-05-02T18:03:55.334Z,94325.83
2019-05-02T18:06:32.684Z,94331.43
2019-05-02T18:08:55.269Z,94347.59
2019-05-02T18:11:22.358Z,94362.47
2019-05-02T18:13:51.717Z,94375.30
2019-05-02T18:16:19.508Z,94387.65
2019-05-02T18:18:47.117Z,94402.31
2019-05-02T18:21:17.216Z,94419.08
2019-05-02T18:23:44.184Z,94424.02
2019-05-02T18:26:11.914Z,94447.56
2019-05-02T18:28:46.841Z,94452.84
2019-05-02T18:31:08.886Z,94465.70
2019-05-02T18:33:41.157Z,94463.59
2019-05-02T18:36:06.349Z,94476.91
2019-05-02T18:38:34.168Z,94474.22
2019-05-02T18:41:05.822Z,94484.54
2019-05-02T18:43:31.608Z,94482.67
2019-05-02T18:46:07.388Z,94498.70
2019-05-02T18:48:36.614Z,94509.86
2019-05-02T18:51:03.304Z,94516.70
2019-05-02T18:53:32.711Z,94526.30
2019-05-02T18:56:01.777Z,94529.59
2019-05-02T18:58:31.945Z,94536.19
2019-05-02T19:01:00.297Z,94549.59
2019-05-02T19:03:28.345Z,94549.94
2019-05-02T19:06:02.208Z,94561.08
2019-05-02T19:08:45.191Z,94559.95
2019-05-02T19:11:10.010Z,94547.57
2019-05-02T19:13:32.855Z,94561.63
2019-05-02T19:16:02.400Z,94564.18
2019-05-02T19:18:32.647Z,94569.95
2019-05-02T19:21:02.780Z,94575.44
2019-05-02T19:23:31.984Z,94575.66
2019-05-02T19:26:02.309Z,94581.45
2019-05-02T19:28:39.462Z,94572.83
2019-05-02T19:31:07.578Z,94591.71
2019-05-02T19:33:37.421Z,94597.89
2019-05-02T19:36:06.137Z,94608.66
2019-05-02T19:38:34.913Z,94615.10
2019-05-02T19:41:08.803Z,94621.67
2019-05-02T19:43:34.936Z,94618.98
2019-05-02T19:46:03.400Z,94636.75
2019-05-02T19:48:36.762Z,94630.03
2019-05-02T19:51:02.558Z,94643.00
2019-05-02T19:53:32.317Z,94646.09
2019-05-02T19:56:01.349Z,94649.81
2019-05-02T19:58:31.999Z,94665.66
2019-05-02T20:01:02.050Z,94662.75
2019-05-02T20:03:32.148Z,94668.08
2019-05-02T20:06:02.275Z,94668.77
2019-05-02T20:08:30.018Z,94676.71
2019-05-02T20:10:58.498Z,94691.32
2019-05-02T20:13:30.615Z,94687.50
2019-05-02T20:16:12.554Z,94686.61
2019-05-02T20:18:46.968Z,94685.44
2019-05-02T20:21:27.258Z,94684.63
2019-05-02T20:23:49.760Z,94685.44
2019-05-02T20:26:17.298Z,94694.43
2019-05-02T20:28:44.836Z,94688.59
2019-05-02T20:31:12.654Z,94691.10
2019-05-02T20:33:42.849Z,94702.20
2019-05-02T20:36:12.387Z,94692.41
2019-05-02T20:38:42.407Z,94691.23
2019-05-02T20:41:10.059Z,94695.60
2019-05-02T20:43:38.486Z,94709.52
2019-05-02T20:46:05.942Z,94698.27
2019-05-02T20:48:33.455Z,94701.45
2019-05-02T20:51:02.512Z,94705.24
2019-05-02T20:53:31.860Z,94708.89
2019-05-02T20:56:01.681Z,94704.53
2019-05-02T20:58:30.177Z,94702.09
2019-05-02T21:01:07.827Z,94714.76
2019-05-02T21:03:29.696Z,94716.08
2019-05-02T21:06:12.930Z,94718.66
2019-05-02T21:09:02.044Z,94717.89
2019-05-02T21:11:29.049Z,94719.17
2019-05-02T21:13:56.398Z,94732.83
2019-05-02T21:16:23.742Z,94723.49
2019-05-02T21:18:51.062Z,94730.27
2019-05-02T21:21:21.921Z,94735.86
2019-05-02T21:23:49.633Z,94731.83
2019-05-02T21:26:16.946Z,94729.20
2019-05-02T21:28:46.179Z,94748.45
2019-05-02T21:31:13.498Z,94752.19
2019-05-02T21:33:42.798Z,94761.20
2019-05-02T21:36:12.015Z,94754.02
2019-05-02T21:38:39.599Z,94757.78
2019-05-02T21:41:09.304Z,94777.92
2019-05-02T21:43:36.680Z,94771.66
2019-05-02T21:46:03.966Z,94780.16
2019-05-02T21:48:32.710Z,94778.34
2019-05-02T21:51:19.718Z,94778.11
2019-05-02T21:54:03.301Z,94777.95
2019-05-02T21:56:52.310Z,94782.30
2019-05-02T21:59:19.628Z,94779.60
2019-05-02T22:01:51.751Z,94783.20
2019-05-02T22:04:19.220Z,94776.19
2019-05-02T22:06:46.579Z,94778.45
2019-05-02T22:09:14.246Z,94774.75
2019-05-02T22:11:43.001Z,94781.75
2019-05-02T22:14:10.466Z,94782.36
2019-05-02T22:16:37.803Z,94779.63
2019-05-02T22:19:05.325Z,94796.55
2019-05-02T22:21:35.187Z,94783.53
2019-05-02T22:24:09.766Z,94792.46
2019-05-02T22:26:32.720Z,94785.19
2019-05-02T22:29:01.932Z,94788.88
2019-05-02T22:31:29.575Z,94794.95
2019-05-02T22:33:56.924Z,94792.79
2019-05-02T22:36:24.177Z,94784.53
2019-05-02T22:39:02.689Z,94785.27
2019-05-02T22:41:30.016Z,94777.14
2019-05-02T22:43:57.306Z,94778.98
2019-05-02T22:46:43.228Z,94776.54
2019-05-02T22:49:14.639Z,94778.02
2019-05-02T22:51:42.617Z,94775.64
2019-05-02T22:54:23.363Z,94775.02
2019-05-02T22:56:42.461Z,94772.91
2019-05-02T22:59:09.887Z,94775.47
2019-05-02T23:01:37.198Z,94770.02
2019-05-02T23:04:04.839Z,94770.82
2019-05-02T23:06:32.142Z,94767.95
2019-05-02T23:08:59.549Z,94770.14
2019-05-02T23:11:26.908Z,94772.42
2019-05-02T23:13:54.200Z,94770.93
2019-05-02T23:16:21.546Z,94771.84
2019-05-02T23:18:48.826Z,94768.81
2019-05-02T23:21:16.136Z,94776.27
2019-05-02T23:23:43.458Z,94765.61
2019-05-02T23:26:22.466Z,94764.67
2019-05-02T23:28:51.748Z,94766.51
2019-05-02T23:31:19.175Z,94765.09
2019-05-02T23:33:58.699Z,94761.61
2019-05-02T23:36:27.793Z,94759.86
2019-05-02T23:38:55.070Z,94754.98
2019-05-02T23:41:22.537Z,94762.19
2019-05-02T23:43:49.942Z,94762.19
2019-05-02T23:46:17.257Z,94763.02
2019-05-02T23:48:44.577Z,94761.61
2019-05-02T23:51:12.173Z,94762.19
2019-05-02T23:53:39.597Z,94760.23
2019-05-02T23:56:06.916Z,94761.58
2019-05-02T23:58:34.237Z,94761.34
